sensor_id;sensor_type;location;lat;lon;timestamp;temperature;humidity
80176;DHT22;71945;42.122;24.732;2023-08-07T00:00:11;26.10;32.90
80176;DHT22;71945;42.122;24.732;2023-08-07T00:02:37;26.10;33.20
80176;DHT22;71945;42.122;24.732;2023-08-07T00:05:04;26.30;32.90
80176;DHT22;71945;42.122;24.732;2023-08-07T00:07:29;26.20;32.70
80176;DHT22;71945;42.122;24.732;2023-08-07T00:09:55;26.30;32.80
80176;DHT22;71945;42.122;24.732;2023-08-07T00:12:21;26.30;32.50
80176;DHT22;71945;42.122;24.732;2023-08-07T00:14:50;26.20;33.00
80176;DHT22;71945;42.122;24.732;2023-08-07T00:17:16;26.30;32.80
80176;DHT22;71945;42.122;24.732;2023-08-07T00:19:42;26.30;32.90
80176;DHT22;71945;42.122;24.732;2023-08-07T00:22:07;26.20;33.10
80176;DHT22;71945;42.122;24.732;2023-08-07T00:24:33;26.30;32.90
80176;DHT22;71945;42.122;24.732;2023-08-07T00:26:58;26.20;33.10
80176;DHT22;71945;42.122;24.732;2023-08-07T00:29:24;26.20;32.90
80176;DHT22;71945;42.122;24.732;2023-08-07T00:31:50;26.20;33.20
80176;DHT22;71945;42.122;24.732;2023-08-07T00:34:15;25.90;33.40
80176;DHT22;71945;42.122;24.732;2023-08-07T00:36:41;25.90;33.70
80176;DHT22;71945;42.122;24.732;2023-08-07T00:39:07;26.00;33.70
80176;DHT22;71945;42.122;24.732;2023-08-07T00:41:33;26.20;33.60
80176;DHT22;71945;42.122;24.732;2023-08-07T00:43:59;26.20;33.10
80176;DHT22;71945;42.122;24.732;2023-08-07T00:46:27;26.30;33.40
80176;DHT22;71945;42.122;24.732;2023-08-07T00:48:53;26.30;33.50
80176;DHT22;71945;42.122;24.732;2023-08-07T00:51:20;26.30;33.40
80176;DHT22;71945;42.122;24.732;2023-08-07T00:53:48;26.50;33.30
80176;DHT22;71945;42.122;24.732;2023-08-07T00:56:14;26.30;33.00
80176;DHT22;71945;42.122;24.732;2023-08-07T00:58:40;26.30;33.30
80176;DHT22;71945;42.122;24.732;2023-08-07T01:01:06;26.00;33.70
80176;DHT22;71945;42.122;24.732;2023-08-07T01:03:32;26.00;33.70
80176;DHT22;71945;42.122;24.732;2023-08-07T01:05:58;26.00;34.00
80176;DHT22;71945;42.122;24.732;2023-08-07T01:08:27;26.10;33.90
80176;DHT22;71945;42.122;24.732;2023-08-07T01:11:05;26.20;33.70
80176;DHT22;71945;42.122;24.732;2023-08-07T01:13:42;26.30;33.50
80176;DHT22;71945;42.122;24.732;2023-08-07T01:16:18;26.40;33.30
80176;DHT22;71945;42.122;24.732;2023-08-07T01:18:47;26.10;33.80
80176;DHT22;71945;42.122;24.732;2023-08-07T01:21:19;26.10;34.00
80176;DHT22;71945;42.122;24.732;2023-08-07T01:23:48;25.90;34.10
80176;DHT22;71945;42.122;24.732;2023-08-07T01:26:15;25.70;34.80
80176;DHT22;71945;42.122;24.732;2023-08-07T01:28:50;25.70;35.00
80176;DHT22;71945;42.122;24.732;2023-08-07T01:31:20;25.50;35.60
80176;DHT22;71945;42.122;24.732;2023-08-07T01:33:48;25.50;35.80
80176;DHT22;71945;42.122;24.732;2023-08-07T01:36:16;25.60;35.80
80176;DHT22;71945;42.122;24.732;2023-08-07T01:38:42;25.70;35.20
80176;DHT22;71945;42.122;24.732;2023-08-07T01:41:09;25.80;35.00
80176;DHT22;71945;42.122;24.732;2023-08-07T01:43:34;25.90;35.00
80176;DHT22;71945;42.122;24.732;2023-08-07T01:46:01;26.00;34.60
80176;DHT22;71945;42.122;24.732;2023-08-07T01:48:28;26.00;34.90
80176;DHT22;71945;42.122;24.732;2023-08-07T01:50:53;25.80;35.10
80176;DHT22;71945;42.122;24.732;2023-08-07T01:53:20;25.70;35.20
80176;DHT22;71945;42.122;24.732;2023-08-07T01:55:46;25.60;35.30
80176;DHT22;71945;42.122;24.732;2023-08-07T01:58:12;25.50;35.70
80176;DHT22;71945;42.122;24.732;2023-08-07T02:00:37;25.50;35.80
80176;DHT22;71945;42.122;24.732;2023-08-07T02:03:03;25.50;35.80
80176;DHT22;71945;42.122;24.732;2023-08-07T02:05:29;25.40;36.00
80176;DHT22;71945;42.122;24.732;2023-08-07T02:07:55;25.10;36.70
80176;DHT22;71945;42.122;24.732;2023-08-07T02:10:22;25.10;37.00
80176;DHT22;71945;42.122;24.732;2023-08-07T02:12:48;25.20;36.90
80176;DHT22;71945;42.122;24.732;2023-08-07T02:15:14;25.10;36.50
80176;DHT22;71945;42.122;24.732;2023-08-07T02:17:40;25.20;36.80
80176;DHT22;71945;42.122;24.732;2023-08-07T02:20:07;25.20;36.70
80176;DHT22;71945;42.122;24.732;2023-08-07T02:22:33;25.20;37.00
80176;DHT22;71945;42.122;24.732;2023-08-07T02:24:58;25.10;37.00
80176;DHT22;71945;42.122;24.732;2023-08-07T02:27:24;25.00;37.30
80176;DHT22;71945;42.122;24.732;2023-08-07T02:29:50;24.90;37.20
80176;DHT22;71945;42.122;24.732;2023-08-07T02:32:19;24.80;37.70
80176;DHT22;71945;42.122;24.732;2023-08-07T02:34:45;24.90;37.60
80176;DHT22;71945;42.122;24.732;2023-08-07T02:37:11;24.60;38.30
80176;DHT22;71945;42.122;24.732;2023-08-07T02:39:37;24.50;38.60
80176;DHT22;71945;42.122;24.732;2023-08-07T02:42:02;24.50;38.60
80176;DHT22;71945;42.122;24.732;2023-08-07T02:44:28;24.40;38.90
80176;DHT22;71945;42.122;24.732;2023-08-07T02:46:54;24.40;39.20
80176;DHT22;71945;42.122;24.732;2023-08-07T02:49:20;24.40;39.10
80176;DHT22;71945;42.122;24.732;2023-08-07T02:51:45;24.40;39.40
80176;DHT22;71945;42.122;24.732;2023-08-07T02:54:11;24.50;39.10
80176;DHT22;71945;42.122;24.732;2023-08-07T02:56:37;24.60;38.80
80176;DHT22;71945;42.122;24.732;2023-08-07T02:59:02;24.40;39.50
80176;DHT22;71945;42.122;24.732;2023-08-07T03:01:28;24.50;39.40
80176;DHT22;71945;42.122;24.732;2023-08-07T03:03:54;24.70;38.90
80176;DHT22;71945;42.122;24.732;2023-08-07T03:06:20;24.60;39.00
80176;DHT22;71945;42.122;24.732;2023-08-07T03:08:45;24.70;38.90
80176;DHT22;71945;42.122;24.732;2023-08-07T03:11:11;24.70;39.00
80176;DHT22;71945;42.122;24.732;2023-08-07T03:13:36;24.40;39.30
80176;DHT22;71945;42.122;24.732;2023-08-07T03:16:04;24.50;39.10
80176;DHT22;71945;42.122;24.732;2023-08-07T03:18:30;24.50;39.20
80176;DHT22;71945;42.122;24.732;2023-08-07T03:20:56;24.50;39.00
80176;DHT22;71945;42.122;24.732;2023-08-07T03:23:26;24.40;39.30
80176;DHT22;71945;42.122;24.732;2023-08-07T03:26:02;24.40;39.50
80176;DHT22;71945;42.122;24.732;2023-08-07T03:28:28;24.50;39.20
80176;DHT22;71945;42.122;24.732;2023-08-07T03:30:53;24.40;39.30
80176;DHT22;71945;42.122;24.732;2023-08-07T03:33:19;24.50;39.10
80176;DHT22;71945;42.122;24.732;2023-08-07T03:35:45;24.10;39.70
80176;DHT22;71945;42.122;24.732;2023-08-07T03:38:11;24.20;40.10
80176;DHT22;71945;42.122;24.732;2023-08-07T03:40:36;24.40;39.70
80176;DHT22;71945;42.122;24.732;2023-08-07T03:43:02;24.40;39.40
80176;DHT22;71945;42.122;24.732;2023-08-07T03:45:28;24.50;39.20
80176;DHT22;71945;42.122;24.732;2023-08-07T03:47:53;24.40;39.20
80176;DHT22;71945;42.122;24.732;2023-08-07T03:50:19;24.30;39.50
80176;DHT22;71945;42.122;24.732;2023-08-07T03:52:45;24.30;39.60
80176;DHT22;71945;42.122;24.732;2023-08-07T03:55:10;24.40;39.70
80176;DHT22;71945;42.122;24.732;2023-08-07T03:57:36;24.50;39.60
80176;DHT22;71945;42.122;24.732;2023-08-07T04:00:02;24.70;39.10
80176;DHT22;71945;42.122;24.732;2023-08-07T04:02:28;24.70;39.10
80176;DHT22;71945;42.122;24.732;2023-08-07T04:04:55;24.70;39.30
80176;DHT22;71945;42.122;24.732;2023-08-07T04:07:21;24.70;39.10
80176;DHT22;71945;42.122;24.732;2023-08-07T04:09:46;24.50;39.20
80176;DHT22;71945;42.122;24.732;2023-08-07T04:12:12;24.70;39.00
80176;DHT22;71945;42.122;24.732;2023-08-07T04:14:38;24.60;39.20
80176;DHT22;71945;42.122;24.732;2023-08-07T04:17:04;24.50;39.40
80176;DHT22;71945;42.122;24.732;2023-08-07T04:19:32;24.30;39.70
80176;DHT22;71945;42.122;24.732;2023-08-07T04:21:58;24.30;40.00
80176;DHT22;71945;42.122;24.732;2023-08-07T04:24:24;24.40;40.20
80176;DHT22;71945;42.122;24.732;2023-08-07T04:26:49;24.60;39.80
80176;DHT22;71945;42.122;24.732;2023-08-07T04:29:15;24.60;39.40
80176;DHT22;71945;42.122;24.732;2023-08-07T04:31:40;24.60;39.40
80176;DHT22;71945;42.122;24.732;2023-08-07T04:34:06;24.50;39.90
80176;DHT22;71945;42.122;24.732;2023-08-07T04:36:32;24.40;40.00
80176;DHT22;71945;42.122;24.732;2023-08-07T04:38:58;24.40;39.90
80176;DHT22;71945;42.122;24.732;2023-08-07T04:41:24;24.30;39.70
80176;DHT22;71945;42.122;24.732;2023-08-07T04:43:49;24.20;40.50
80176;DHT22;71945;42.122;24.732;2023-08-07T04:46:15;24.30;40.10
80176;DHT22;71945;42.122;24.732;2023-08-07T04:48:41;24.50;39.90
80176;DHT22;71945;42.122;24.732;2023-08-07T04:51:07;24.50;39.70
80176;DHT22;71945;42.122;24.732;2023-08-07T04:53:32;24.40;39.60
80176;DHT22;71945;42.122;24.732;2023-08-07T04:56:01;24.50;39.50
80176;DHT22;71945;42.122;24.732;2023-08-07T04:58:27;24.60;39.20
80176;DHT22;71945;42.122;24.732;2023-08-07T05:00:59;24.50;39.10
80176;DHT22;71945;42.122;24.732;2023-08-07T05:03:25;24.40;39.50
80176;DHT22;71945;42.122;24.732;2023-08-07T05:05:58;24.40;39.50
80176;DHT22;71945;42.122;24.732;2023-08-07T05:08:25;24.50;39.20
80176;DHT22;71945;42.122;24.732;2023-08-07T05:10:51;24.40;39.30
80176;DHT22;71945;42.122;24.732;2023-08-07T05:13:16;24.70;39.00
80176;DHT22;71945;42.122;24.732;2023-08-07T05:15:42;24.80;38.40
80176;DHT22;71945;42.122;24.732;2023-08-07T05:18:08;24.80;38.40
80176;DHT22;71945;42.122;24.732;2023-08-07T05:20:33;24.60;38.60
80176;DHT22;71945;42.122;24.732;2023-08-07T05:22:59;24.50;39.00
80176;DHT22;71945;42.122;24.732;2023-08-07T05:25:25;24.40;39.50
80176;DHT22;71945;42.122;24.732;2023-08-07T05:27:51;24.30;39.80
80176;DHT22;71945;42.122;24.732;2023-08-07T05:30:16;24.50;39.60
80176;DHT22;71945;42.122;24.732;2023-08-07T05:32:42;24.70;38.90
80176;DHT22;71945;42.122;24.732;2023-08-07T05:35:08;24.50;39.10
80176;DHT22;71945;42.122;24.732;2023-08-07T05:37:34;24.70;38.80
80176;DHT22;71945;42.122;24.732;2023-08-07T05:40:01;24.90;38.60
80176;DHT22;71945;42.122;24.732;2023-08-07T05:42:26;24.90;38.50
80176;DHT22;71945;42.122;24.732;2023-08-07T05:44:52;24.90;38.30
80176;DHT22;71945;42.122;24.732;2023-08-07T05:47:18;25.00;37.90
80176;DHT22;71945;42.122;24.732;2023-08-07T05:49:44;25.10;37.70
80176;DHT22;71945;42.122;24.732;2023-08-07T05:52:09;25.10;37.60
80176;DHT22;71945;42.122;24.732;2023-08-07T05:54:35;25.10;37.40
80176;DHT22;71945;42.122;24.732;2023-08-07T05:57:01;25.10;37.40
80176;DHT22;71945;42.122;24.732;2023-08-07T05:59:27;24.90;37.90
80176;DHT22;71945;42.122;24.732;2023-08-07T06:01:53;25.00;37.80
80176;DHT22;71945;42.122;24.732;2023-08-07T06:04:20;25.20;37.60
80176;DHT22;71945;42.122;24.732;2023-08-07T06:06:45;25.20;37.10
80176;DHT22;71945;42.122;24.732;2023-08-07T06:09:11;25.30;37.00
80176;DHT22;71945;42.122;24.732;2023-08-07T06:11:37;25.40;36.90
80176;DHT22;71945;42.122;24.732;2023-08-07T06:14:03;25.50;36.50
80176;DHT22;71945;42.122;24.732;2023-08-07T06:16:29;25.70;36.20
80176;DHT22;71945;42.122;24.732;2023-08-07T06:18:57;25.80;35.80
80176;DHT22;71945;42.122;24.732;2023-08-07T06:21:23;25.80;35.30
80176;DHT22;71945;42.122;24.732;2023-08-07T06:23:49;25.50;35.70
80176;DHT22;71945;42.122;24.732;2023-08-07T06:26:15;25.50;35.80
80176;DHT22;71945;42.122;24.732;2023-08-07T06:28:42;25.60;35.70
80176;DHT22;71945;42.122;24.732;2023-08-07T06:31:08;25.60;36.60
80176;DHT22;71945;42.122;24.732;2023-08-07T06:33:38;25.60;35.80
80176;DHT22;71945;42.122;24.732;2023-08-07T06:36:07;25.70;35.70
80176;DHT22;71945;42.122;24.732;2023-08-07T06:38:34;25.50;35.60
80176;DHT22;71945;42.122;24.732;2023-08-07T06:41:04;25.50;36.10
80176;DHT22;71945;42.122;24.732;2023-08-07T06:43:29;25.60;36.00
80176;DHT22;71945;42.122;24.732;2023-08-07T06:45:56;25.70;35.80
80176;DHT22;71945;42.122;24.732;2023-08-07T06:48:22;25.70;35.80
80176;DHT22;71945;42.122;24.732;2023-08-07T06:50:51;25.80;35.60
80176;DHT22;71945;42.122;24.732;2023-08-07T06:53:17;25.90;35.80
80176;DHT22;71945;42.122;24.732;2023-08-07T06:55:43;26.10;35.60
80176;DHT22;71945;42.122;24.732;2023-08-07T06:58:09;26.20;35.10
80176;DHT22;71945;42.122;24.732;2023-08-07T07:00:36;26.20;34.80
80176;DHT22;71945;42.122;24.732;2023-08-07T07:03:02;26.10;35.10
80176;DHT22;71945;42.122;24.732;2023-08-07T07:05:28;26.00;34.80
80176;DHT22;71945;42.122;24.732;2023-08-07T07:07:54;26.00;35.20
80176;DHT22;71945;42.122;24.732;2023-08-07T07:10:20;26.00;35.30
80176;DHT22;71945;42.122;24.732;2023-08-07T07:12:46;26.10;35.40
80176;DHT22;71945;42.122;24.732;2023-08-07T07:15:12;26.20;35.10
80176;DHT22;71945;42.122;24.732;2023-08-07T07:17:38;26.30;34.70
80176;DHT22;71945;42.122;24.732;2023-08-07T07:20:04;26.30;34.30
80176;DHT22;71945;42.122;24.732;2023-08-07T07:22:30;26.40;34.10
80176;DHT22;71945;42.122;24.732;2023-08-07T07:24:55;26.40;34.10
80176;DHT22;71945;42.122;24.732;2023-08-07T07:27:21;26.40;33.70
80176;DHT22;71945;42.122;24.732;2023-08-07T07:29:48;26.50;33.40
80176;DHT22;71945;42.122;24.732;2023-08-07T07:32:14;26.50;33.80
80176;DHT22;71945;42.122;24.732;2023-08-07T07:34:40;26.40;33.50
80176;DHT22;71945;42.122;24.732;2023-08-07T07:37:05;26.50;33.50
80176;DHT22;71945;42.122;24.732;2023-08-07T07:39:31;26.60;33.20
80176;DHT22;71945;42.122;24.732;2023-08-07T07:41:57;26.70;33.00
80176;DHT22;71945;42.122;24.732;2023-08-07T07:44:22;26.70;32.60
80176;DHT22;71945;42.122;24.732;2023-08-07T07:46:48;26.80;32.30
80176;DHT22;71945;42.122;24.732;2023-08-07T07:49:14;26.60;32.50
80176;DHT22;71945;42.122;24.732;2023-08-07T07:51:40;26.60;32.60
80176;DHT22;71945;42.122;24.732;2023-08-07T07:54:08;26.70;32.20
80176;DHT22;71945;42.122;24.732;2023-08-07T07:56:34;26.80;32.10
80176;DHT22;71945;42.122;24.732;2023-08-07T07:59:00;26.70;31.70
80176;DHT22;71945;42.122;24.732;2023-08-07T08:01:25;26.80;31.70
80176;DHT22;71945;42.122;24.732;2023-08-07T08:03:51;26.80;31.50
80176;DHT22;71945;42.122;24.732;2023-08-07T08:06:17;26.80;31.40
80176;DHT22;71945;42.122;24.732;2023-08-07T08:08:43;26.90;31.40
80176;DHT22;71945;42.122;24.732;2023-08-07T08:11:09;26.90;31.50
80176;DHT22;71945;42.122;24.732;2023-08-07T08:13:34;27.00;31.60
80176;DHT22;71945;42.122;24.732;2023-08-07T08:16:05;27.10;31.50
80176;DHT22;71945;42.122;24.732;2023-08-07T08:18:31;27.30;31.10
80176;DHT22;71945;42.122;24.732;2023-08-07T08:20:57;27.40;30.60
80176;DHT22;71945;42.122;24.732;2023-08-07T08:23:22;27.50;29.90
80176;DHT22;71945;42.122;24.732;2023-08-07T08:25:49;27.40;28.60
80176;DHT22;71945;42.122;24.732;2023-08-07T08:28:14;27.50;28.30
80176;DHT22;71945;42.122;24.732;2023-08-07T08:30:41;27.60;28.50
80176;DHT22;71945;42.122;24.732;2023-08-07T08:33:07;27.70;28.10
80176;DHT22;71945;42.122;24.732;2023-08-07T08:35:52;27.70;27.60
80176;DHT22;71945;42.122;24.732;2023-08-07T08:38:17;27.80;27.60
80176;DHT22;71945;42.122;24.732;2023-08-07T08:40:44;27.90;27.50
80176;DHT22;71945;42.122;24.732;2023-08-07T08:43:12;27.90;27.40
80176;DHT22;71945;42.122;24.732;2023-08-07T08:45:39;27.90;27.70
80176;DHT22;71945;42.122;24.732;2023-08-07T08:48:11;28.10;27.40
80176;DHT22;71945;42.122;24.732;2023-08-07T08:50:42;28.10;27.40
80176;DHT22;71945;42.122;24.732;2023-08-07T08:53:09;28.20;27.30
80176;DHT22;71945;42.122;24.732;2023-08-07T08:55:35;28.30;27.10
80176;DHT22;71945;42.122;24.732;2023-08-07T08:58:01;28.30;26.90
80176;DHT22;71945;42.122;24.732;2023-08-07T09:00:28;28.20;26.80
80176;DHT22;71945;42.122;24.732;2023-08-07T09:02:56;28.20;27.30
80176;DHT22;71945;42.122;24.732;2023-08-07T09:05:22;28.40;27.30
80176;DHT22;71945;42.122;24.732;2023-08-07T09:07:48;28.50;26.90
80176;DHT22;71945;42.122;24.732;2023-08-07T09:10:15;28.60;26.60
80176;DHT22;71945;42.122;24.732;2023-08-07T09:12:57;28.70;26.40
80176;DHT22;71945;42.122;24.732;2023-08-07T09:15:25;28.80;26.20
80176;DHT22;71945;42.122;24.732;2023-08-07T09:17:57;28.90;26.20
80176;DHT22;71945;42.122;24.732;2023-08-07T09:20:26;29.00;26.10
80176;DHT22;71945;42.122;24.732;2023-08-07T09:22:54;29.10;25.80
80176;DHT22;71945;42.122;24.732;2023-08-07T09:25:33;29.20;25.60
80176;DHT22;71945;42.122;24.732;2023-08-07T09:28:04;29.10;25.60
80176;DHT22;71945;42.122;24.732;2023-08-07T09:30:31;29.10;25.60
80176;DHT22;71945;42.122;24.732;2023-08-07T09:32:57;29.20;25.60
80176;DHT22;71945;42.122;24.732;2023-08-07T09:35:23;29.40;25.80
80176;DHT22;71945;42.122;24.732;2023-08-07T09:37:50;29.40;25.60
80176;DHT22;71945;42.122;24.732;2023-08-07T09:40:15;29.50;25.40
80176;DHT22;71945;42.122;24.732;2023-08-07T09:42:41;29.60;25.10
80176;DHT22;71945;42.122;24.732;2023-08-07T09:45:24;29.70;24.80
80176;DHT22;71945;42.122;24.732;2023-08-07T09:48:06;29.70;24.70
80176;DHT22;71945;42.122;24.732;2023-08-07T09:50:32;29.90;24.70
80176;DHT22;71945;42.122;24.732;2023-08-07T09:52:58;29.90;24.90
80176;DHT22;71945;42.122;24.732;2023-08-07T09:55:25;30.00;25.70
80176;DHT22;71945;42.122;24.732;2023-08-07T09:57:51;30.00;24.80
80176;DHT22;71945;42.122;24.732;2023-08-07T10:00:17;30.10;24.40
80176;DHT22;71945;42.122;24.732;2023-08-07T10:02:46;30.20;24.80
80176;DHT22;71945;42.122;24.732;2023-08-07T10:05:13;30.30;24.70
80176;DHT22;71945;42.122;24.732;2023-08-07T10:07:40;30.30;23.70
80176;DHT22;71945;42.122;24.732;2023-08-07T10:10:07;30.40;24.20
80176;DHT22;71945;42.122;24.732;2023-08-07T10:12:33;30.50;24.20
80176;DHT22;71945;42.122;24.732;2023-08-07T10:15:00;30.50;24.10
80176;DHT22;71945;42.122;24.732;2023-08-07T10:17:29;30.60;24.30
80176;DHT22;71945;42.122;24.732;2023-08-07T10:19:57;30.70;24.30
80176;DHT22;71945;42.122;24.732;2023-08-07T10:22:27;30.80;24.60
80176;DHT22;71945;42.122;24.732;2023-08-07T10:24:57;30.90;24.60
80176;DHT22;71945;42.122;24.732;2023-08-07T10:27:25;31.00;24.60
80176;DHT22;71945;42.122;24.732;2023-08-07T10:29:54;31.10;24.40
80176;DHT22;71945;42.122;24.732;2023-08-07T10:32:25;31.10;22.80
80176;DHT22;71945;42.122;24.732;2023-08-07T10:34:52;31.20;23.30
80176;DHT22;71945;42.122;24.732;2023-08-07T10:37:43;31.30;23.40
80176;DHT22;71945;42.122;24.732;2023-08-07T10:40:11;31.40;23.40
80176;DHT22;71945;42.122;24.732;2023-08-07T10:45:21;31.60;22.60
80176;DHT22;71945;42.122;24.732;2023-08-07T10:48:12;31.70;22.50
80176;DHT22;71945;42.122;24.732;2023-08-07T10:53:20;31.80;22.40
80176;DHT22;71945;42.122;24.732;2023-08-07T10:55:53;31.90;22.40
80176;DHT22;71945;42.122;24.732;2023-08-07T10:58:30;32.10;22.40
80176;DHT22;71945;42.122;24.732;2023-08-07T11:01:39;32.10;22.30
80176;DHT22;71945;42.122;24.732;2023-08-07T11:04:07;32.30;22.30
80176;DHT22;71945;42.122;24.732;2023-08-07T11:06:34;32.40;22.10
80176;DHT22;71945;42.122;24.732;2023-08-07T11:09:02;32.40;22.20
80176;DHT22;71945;42.122;24.732;2023-08-07T11:11:37;32.40;22.10
80176;DHT22;71945;42.122;24.732;2023-08-07T11:14:06;32.60;21.80
80176;DHT22;71945;42.122;24.732;2023-08-07T11:16:34;32.60;21.90
80176;DHT22;71945;42.122;24.732;2023-08-07T11:19:00;32.80;21.60
80176;DHT22;71945;42.122;24.732;2023-08-07T11:21:26;32.90;21.70
80176;DHT22;71945;42.122;24.732;2023-08-07T11:23:51;33.00;21.70
80176;DHT22;71945;42.122;24.732;2023-08-07T11:26:20;33.10;21.40
80176;DHT22;71945;42.122;24.732;2023-08-07T11:28:47;33.20;21.20
80176;DHT22;71945;42.122;24.732;2023-08-07T11:31:13;33.40;21.40
80176;DHT22;71945;42.122;24.732;2023-08-07T11:33:40;33.50;20.40
80176;DHT22;71945;42.122;24.732;2023-08-07T11:36:13;33.60;20.90
80176;DHT22;71945;42.122;24.732;2023-08-07T11:38:41;33.70;20.80
80176;DHT22;71945;42.122;24.732;2023-08-07T11:41:11;33.80;20.70
80176;DHT22;71945;42.122;24.732;2023-08-07T11:43:38;34.00;20.60
80176;DHT22;71945;42.122;24.732;2023-08-07T11:46:07;34.10;19.50
80176;DHT22;71945;42.122;24.732;2023-08-07T11:48:35;34.30;20.10
80176;DHT22;71945;42.122;24.732;2023-08-07T11:51:05;34.50;20.80
80176;DHT22;71945;42.122;24.732;2023-08-07T11:53:34;34.60;19.90
80176;DHT22;71945;42.122;24.732;2023-08-07T11:56:05;34.90;19.70
80176;DHT22;71945;42.122;24.732;2023-08-07T11:58:44;35.00;19.60
80176;DHT22;71945;42.122;24.732;2023-08-07T12:01:15;35.20;19.10
80176;DHT22;71945;42.122;24.732;2023-08-07T12:03:49;35.50;18.90
80176;DHT22;71945;42.122;24.732;2023-08-07T12:06:15;35.70;18.60
80176;DHT22;71945;42.122;24.732;2023-08-07T12:08:42;35.90;18.70
80176;DHT22;71945;42.122;24.732;2023-08-07T12:11:11;36.10;18.50
80176;DHT22;71945;42.122;24.732;2023-08-07T12:13:39;36.30;18.10
80176;DHT22;71945;42.122;24.732;2023-08-07T12:16:05;36.50;17.90
80176;DHT22;71945;42.122;24.732;2023-08-07T12:18:31;36.70;17.90
80176;DHT22;71945;42.122;24.732;2023-08-07T12:21:02;36.90;17.80
80176;DHT22;71945;42.122;24.732;2023-08-07T12:23:33;37.10;17.30
80176;DHT22;71945;42.122;24.732;2023-08-07T12:25:59;37.40;16.70
80176;DHT22;71945;42.122;24.732;2023-08-07T12:28:24;37.50;16.70
80176;DHT22;71945;42.122;24.732;2023-08-07T12:30:51;37.70;16.60
80176;DHT22;71945;42.122;24.732;2023-08-07T12:33:17;37.90;16.30
80176;DHT22;71945;42.122;24.732;2023-08-07T12:35:43;38.10;16.10
80176;DHT22;71945;42.122;24.732;2023-08-07T12:38:09;38.30;15.70
80176;DHT22;71945;42.122;24.732;2023-08-07T12:40:34;38.40;15.50
80176;DHT22;71945;42.122;24.732;2023-08-07T12:43:04;38.50;15.20
80176;DHT22;71945;42.122;24.732;2023-08-07T12:45:29;38.60;15.20
80176;DHT22;71945;42.122;24.732;2023-08-07T12:47:55;38.70;15.30
80176;DHT22;71945;42.122;24.732;2023-08-07T12:50:21;38.70;15.10
80176;DHT22;71945;42.122;24.732;2023-08-07T12:52:46;38.70;15.00
80176;DHT22;71945;42.122;24.732;2023-08-07T12:55:12;38.80;15.00
80176;DHT22;71945;42.122;24.732;2023-08-07T12:57:41;38.80;15.00
80176;DHT22;71945;42.122;24.732;2023-08-07T13:00:08;38.80;15.00
80176;DHT22;71945;42.122;24.732;2023-08-07T13:02:37;38.80;15.10
80176;DHT22;71945;42.122;24.732;2023-08-07T13:05:03;38.80;15.00
80176;DHT22;71945;42.122;24.732;2023-08-07T13:07:31;38.80;14.90
80176;DHT22;71945;42.122;24.732;2023-08-07T13:09:57;38.80;14.90
80176;DHT22;71945;42.122;24.732;2023-08-07T13:12:23;38.80;14.90
80176;DHT22;71945;42.122;24.732;2023-08-07T13:14:48;38.80;14.90
80176;DHT22;71945;42.122;24.732;2023-08-07T13:17:14;38.80;15.00
80176;DHT22;71945;42.122;24.732;2023-08-07T13:19:40;38.80;15.20
80176;DHT22;71945;42.122;24.732;2023-08-07T13:22:07;38.80;15.30
80176;DHT22;71945;42.122;24.732;2023-08-07T13:24:33;38.80;14.80
80176;DHT22;71945;42.122;24.732;2023-08-07T13:26:58;38.80;14.90
80176;DHT22;71945;42.122;24.732;2023-08-07T13:29:24;38.80;14.90
80176;DHT22;71945;42.122;24.732;2023-08-07T13:31:51;38.80;15.10
80176;DHT22;71945;42.122;24.732;2023-08-07T13:34:17;38.70;15.20
80176;DHT22;71945;42.122;24.732;2023-08-07T13:36:43;38.70;16.20
80176;DHT22;71945;42.122;24.732;2023-08-07T13:39:08;38.70;15.40
80176;DHT22;71945;42.122;24.732;2023-08-07T13:41:34;38.70;15.10
80176;DHT22;71945;42.122;24.732;2023-08-07T13:44:00;38.70;15.20
80176;DHT22;71945;42.122;24.732;2023-08-07T13:46:29;38.70;15.10
80176;DHT22;71945;42.122;24.732;2023-08-07T13:48:55;38.30;15.30
80176;DHT22;71945;42.122;24.732;2023-08-07T13:51:21;38.20;15.90
80176;DHT22;71945;42.122;24.732;2023-08-07T13:53:47;38.40;15.60
80176;DHT22;71945;42.122;24.732;2023-08-07T13:56:12;38.70;15.30
80176;DHT22;71945;42.122;24.732;2023-08-07T13:58:42;38.90;15.00
80176;DHT22;71945;42.122;24.732;2023-08-07T14:01:08;39.10;15.00
80176;DHT22;71945;42.122;24.732;2023-08-07T14:03:33;39.40;14.70
80176;DHT22;71945;42.122;24.732;2023-08-07T14:06:00;39.50;14.60
80176;DHT22;71945;42.122;24.732;2023-08-07T14:08:26;39.70;14.40
80176;DHT22;71945;42.122;24.732;2023-08-07T14:10:51;39.70;14.30
80176;DHT22;71945;42.122;24.732;2023-08-07T14:13:17;39.80;14.50
80176;DHT22;71945;42.122;24.732;2023-08-07T14:15:43;39.80;14.40
80176;DHT22;71945;42.122;24.732;2023-08-07T14:18:08;39.80;14.30
80176;DHT22;71945;42.122;24.732;2023-08-07T14:20:35;39.70;14.50
80176;DHT22;71945;42.122;24.732;2023-08-07T14:23:01;39.60;14.60
80176;DHT22;71945;42.122;24.732;2023-08-07T14:25:26;39.60;14.80
80176;DHT22;71945;42.122;24.732;2023-08-07T14:27:52;39.40;14.70
80176;DHT22;71945;42.122;24.732;2023-08-07T14:30:19;39.40;14.90
80176;DHT22;71945;42.122;24.732;2023-08-07T14:32:49;39.30;15.00
80176;DHT22;71945;42.122;24.732;2023-08-07T14:35:14;39.20;15.00
80176;DHT22;71945;42.122;24.732;2023-08-07T14:37:44;39.30;14.80
80176;DHT22;71945;42.122;24.732;2023-08-07T14:40:10;39.30;15.00
80176;DHT22;71945;42.122;24.732;2023-08-07T14:42:36;39.30;15.10
80176;DHT22;71945;42.122;24.732;2023-08-07T14:45:01;39.30;15.10
80176;DHT22;71945;42.122;24.732;2023-08-07T14:47:27;39.20;15.00
80176;DHT22;71945;42.122;24.732;2023-08-07T14:49:53;39.00;14.90
80176;DHT22;71945;42.122;24.732;2023-08-07T14:52:18;39.00;15.10
80176;DHT22;71945;42.122;24.732;2023-08-07T14:54:44;39.00;15.00
80176;DHT22;71945;42.122;24.732;2023-08-07T14:57:10;39.10;14.90
80176;DHT22;71945;42.122;24.732;2023-08-07T14:59:38;39.10;14.70
80176;DHT22;71945;42.122;24.732;2023-08-07T15:02:04;39.10;14.80
80176;DHT22;71945;42.122;24.732;2023-08-07T15:04:29;39.00;14.90
80176;DHT22;71945;42.122;24.732;2023-08-07T15:06:55;39.00;15.00
80176;DHT22;71945;42.122;24.732;2023-08-07T15:09:21;39.10;15.00
80176;DHT22;71945;42.122;24.732;2023-08-07T15:11:47;39.10;14.90
80176;DHT22;71945;42.122;24.732;2023-08-07T15:14:13;39.00;14.80
80176;DHT22;71945;42.122;24.732;2023-08-07T15:16:38;38.90;14.80
80176;DHT22;71945;42.122;24.732;2023-08-07T15:19:04;39.00;14.80